createdAt,value
2023-03-05T00:04:22.390Z,100333.88
2023-03-05T00:09:25.299Z,100334.22
2023-03-05T00:14:26.998Z,100335.00
2023-03-05T00:19:28.608Z,100330.56
2023-03-05T00:24:30.339Z,100331.25
2023-03-05T00:29:31.945Z,100321.00
2023-03-05T00:34:33.626Z,100319.09
2023-03-05T00:39:35.355Z,100314.47
2023-03-05T00:44:37.055Z,100308.41
2023-03-05T00:49:38.660Z,100305.00
2023-03-05T00:54:40.284Z,100305.41
2023-03-05T00:59:41.896Z,100296.84
2023-03-05T01:04:45.994Z,100286.47
2023-03-05T01:09:47.594Z,100288.38
2023-03-05T01:14:49.248Z,100274.69
2023-03-05T01:19:50.872Z,100271.97
2023-03-05T01:24:52.591Z,100262.16
2023-03-05T01:29:54.204Z,100269.78
2023-03-05T01:34:55.903Z,100258.69
2023-03-05T01:39:57.529Z,100254.69
2023-03-05T01:45:07.427Z,100247.28
2023-03-05T01:50:19.536Z,100248.34
2023-03-05T01:55:24.444Z,100243.09
2023-03-05T02:00:31.181Z,100244.09
2023-03-05T02:05:35.988Z,100230.53
2023-03-05T02:10:43.055Z,100233.91
2023-03-05T02:15:45.061Z,100223.56
2023-03-05T02:20:54.776Z,100220.81
2023-03-05T02:25:56.878Z,100218.25
2023-03-05T02:30:58.895Z,100214.22
2023-03-05T02:36:00.601Z,100217.59
2023-03-05T02:41:02.300Z,100214.31
2023-03-05T02:46:04.386Z,100210.34
2023-03-05T02:51:07.407Z,100210.19
2023-03-05T02:56:09.035Z,100207.63
2023-03-05T03:01:10.769Z,100198.31
2023-03-05T03:06:12.421Z,100204.22
2023-03-05T03:11:14.246Z,100196.59
2023-03-05T03:16:16.316Z,100199.28
2023-03-05T03:21:20.868Z,100193.06
2023-03-05T03:26:22.679Z,100187.56
2023-03-05T03:31:24.578Z,100185.69
2023-03-05T03:36:26.191Z,100176.16
2023-03-05T03:41:27.822Z,100170.97
2023-03-05T03:46:29.533Z,100173.75
2023-03-05T03:51:31.372Z,100173.81
2023-03-05T03:56:33.034Z,100165.06
2023-03-05T04:01:34.720Z,100165.84
2023-03-05T04:06:36.398Z,100159.03
2023-03-05T04:11:38.272Z,100153.97
2023-03-05T04:16:39.912Z,100147.31
2023-03-05T04:21:41.763Z,100147.56
2023-03-05T04:26:43.376Z,100149.53
2023-03-05T04:31:45.001Z,100130.03
2023-03-05T04:36:46.663Z,100134.72
2023-03-05T04:41:48.536Z,100127.69
2023-03-05T04:46:50.340Z,100119.19
2023-03-05T04:51:52.012Z,100114.69
2023-03-05T04:56:53.656Z,100106.75
2023-03-05T05:01:55.827Z,100103.53
2023-03-05T05:06:57.888Z,100104.47
2023-03-05T05:11:59.526Z,100097.41
2023-03-05T05:17:05.083Z,100089.59
2023-03-05T05:22:06.725Z,100085.13
2023-03-05T05:27:08.421Z,100089.50
2023-03-05T05:32:10.082Z,100093.09
2023-03-05T05:37:11.808Z,100099.38
2023-03-05T05:42:13.433Z,100096.72
2023-03-05T05:47:16.287Z,100093.84
2023-03-05T05:52:17.940Z,100089.72
2023-03-05T05:57:19.547Z,100106.09
2023-03-05T06:02:21.270Z,100089.72
2023-03-05T06:07:22.892Z,100090.06
2023-03-05T06:12:24.613Z,100084.91
2023-03-05T06:17:30.749Z,100083.72
2023-03-05T06:22:36.672Z,100089.22
2023-03-05T06:27:38.714Z,100091.78
2023-03-05T06:32:40.637Z,100093.34
2023-03-05T06:37:42.268Z,100095.16
2023-03-05T06:42:43.948Z,100098.38
2023-03-05T06:47:45.787Z,100100.16
2023-03-05T06:52:49.829Z,100099.84
2023-03-05T06:57:51.453Z,100100.72
2023-03-05T07:02:53.064Z,100096.38
2023-03-05T07:07:54.696Z,100099.88
2023-03-05T07:12:56.613Z,100099.03
2023-03-05T07:17:58.233Z,100099.19
2023-03-05T07:22:59.866Z,100101.44
2023-03-05T07:28:01.506Z,100088.81
2023-03-05T07:33:03.210Z,100088.69
2023-03-05T07:38:04.860Z,100084.66
2023-03-05T07:43:06.581Z,100078.19
2023-03-05T07:48:12.355Z,100084.63
2023-03-05T07:53:14.275Z,100081.53
2023-03-05T07:58:16.288Z,100073.09
2023-03-05T08:03:17.961Z,100073.06
2023-03-05T08:08:20.099Z,100068.25
2023-03-05T08:13:21.805Z,100071.63
2023-03-05T08:18:23.455Z,100067.34
2023-03-05T08:23:25.746Z,100052.84
2023-03-05T08:28:27.414Z,100049.56
2023-03-05T08:33:31.279Z,100042.88
2023-03-05T08:38:33.275Z,100037.25
2023-03-05T08:43:35.074Z,100035.66
2023-03-05T08:48:36.765Z,100036.56
2023-03-05T08:53:39.374Z,100037.97
2023-03-05T08:58:41.126Z,100043.22
2023-03-05T09:03:42.791Z,100037.09
2023-03-05T09:08:44.554Z,100035.38
2023-03-05T09:13:46.691Z,100034.63
2023-03-05T09:18:48.415Z,100033.19
2023-03-05T09:23:50.167Z,100027.75
2023-03-05T09:28:51.875Z,100022.31
2023-03-05T09:33:53.526Z,100018.25
2023-03-05T09:38:55.397Z,100017.88
2023-03-05T09:44:11.038Z,100013.56
2023-03-05T09:49:18.081Z,100017.84
2023-03-05T09:54:25.018Z,100004.97
2023-03-05T09:59:33.607Z,99993.44
2023-03-05T10:05:02.563Z,99991.59
2023-03-05T10:10:10.304Z,99985.97
2023-03-05T10:15:11.860Z,99981.66
2023-03-05T10:20:38.659Z,99966.94
2023-03-05T10:25:40.262Z,99956.56
2023-03-05T10:30:54.833Z,99938.50
2023-03-05T10:36:15.269Z,99919.03
2023-03-05T10:41:38.343Z,99918.41
2023-03-05T10:46:40.307Z,99913.03
2023-03-05T10:51:53.120Z,99902.91
2023-03-05T10:57:05.072Z,99899.00
2023-03-05T11:02:09.009Z,99893.75
2023-03-05T11:07:16.646Z,99892.34
2023-03-05T11:12:21.302Z,99888.78
2023-03-05T11:17:25.053Z,99881.72
2023-03-05T11:22:28.079Z,99874.97
2023-03-05T11:27:37.980Z,99875.09
2023-03-05T11:32:39.844Z,99877.13
2023-03-05T11:37:41.614Z,99869.53
2023-03-05T11:42:44.383Z,99868.16
2023-03-05T11:47:50.330Z,99859.25
2023-03-05T11:52:57.240Z,99856.09
2023-03-05T11:58:17.976Z,99846.22
2023-03-05T12:03:25.015Z,99839.34
2023-03-05T12:08:33.892Z,99838.50
2023-03-05T12:13:42.491Z,99820.38
2023-03-05T12:18:53.911Z,99831.38
2023-03-05T12:23:59.218Z,99813.56
2023-03-05T12:29:01.354Z,99809.94
2023-03-05T12:34:40.966Z,99812.22
2023-03-05T12:39:47.979Z,99799.38
2023-03-05T12:45:09.783Z,99785.78
2023-03-05T12:50:26.727Z,99781.41
2023-03-05T12:55:35.678Z,99768.13
2023-03-05T13:01:15.269Z,99767.97
2023-03-05T13:06:29.303Z,99749.22
2023-03-05T13:11:37.792Z,99747.53
2023-03-05T13:16:39.959Z,99745.06
2023-03-05T13:21:41.760Z,99739.19
2023-03-05T13:26:43.717Z,99731.03
2023-03-05T13:31:54.385Z,99727.13
2023-03-05T13:37:15.440Z,99723.34
2023-03-05T13:42:20.137Z,99720.38
2023-03-05T13:47:23.566Z,99712.75
2023-03-05T13:52:28.610Z,99702.88
2023-03-05T13:57:45.266Z,99701.94
2023-03-05T14:02:46.934Z,99698.72
2023-03-05T14:07:50.844Z,99695.69
2023-03-05T14:12:52.551Z,99687.00
2023-03-05T14:18:12.437Z,99679.72
2023-03-05T14:23:35.063Z,99671.53
2023-03-05T14:28:37.770Z,99663.16
2023-03-05T14:33:43.254Z,99661.00
2023-03-05T14:38:45.460Z,99644.91
2023-03-05T14:43:47.140Z,99632.00
2023-03-05T14:48:50.744Z,99628.50
2023-03-05T14:53:52.539Z,99624.22
2023-03-05T14:58:55.119Z,99605.56
2023-03-05T15:03:56.845Z,99593.06
2023-03-05T15:08:59.586Z,99589.34
2023-03-05T15:14:01.217Z,99576.09
2023-03-05T15:19:03.862Z,99571.13
2023-03-05T15:24:05.800Z,99564.38
2023-03-05T15:29:07.487Z,99569.44
2023-03-05T15:34:09.154Z,99565.41
2023-03-05T15:39:10.785Z,99556.84
2023-03-05T15:44:12.385Z,99558.53
2023-03-05T15:49:14.749Z,99552.81
2023-03-05T15:54:16.438Z,99538.03
2023-03-05T15:59:18.505Z,99541.69
2023-03-05T16:04:20.158Z,99540.56
2023-03-05T16:09:22.683Z,99535.00
2023-03-05T16:14:27.741Z,99533.13
2023-03-05T16:19:30.905Z,99524.72
2023-03-05T16:24:35.612Z,99517.56
2023-03-05T16:29:37.462Z,99522.97
2023-03-05T16:34:39.054Z,99517.78
2023-03-05T16:39:41.315Z,99516.84
2023-03-05T16:44:43.859Z,99512.38
2023-03-05T16:49:45.464Z,99503.19
2023-03-05T16:54:47.298Z,99503.09
2023-03-05T16:59:49.240Z,99501.00
2023-03-05T17:04:51.543Z,99499.56
2023-03-05T17:09:54.215Z,99494.09
2023-03-05T17:14:56.082Z,99491.84
2023-03-05T17:19:59.308Z,99491.00
2023-03-05T17:25:00.996Z,99491.00
2023-03-05T17:30:02.996Z,99491.13
2023-03-05T17:35:05.613Z,99490.44
2023-03-05T17:40:08.182Z,99482.06
2023-03-05T17:45:10.195Z,99486.44
2023-03-05T17:50:14.094Z,99487.41
2023-03-05T17:55:17.343Z,99491.63
2023-03-05T18:00:22.173Z,99484.88
2023-03-05T18:05:24.848Z,99488.53
2023-03-05T18:10:27.782Z,99488.31
2023-03-05T18:15:30.355Z,99490.53
2023-03-05T18:20:36.219Z,99477.66
2023-03-05T18:25:37.856Z,99475.28
2023-03-05T18:30:40.943Z,99468.28
2023-03-05T18:35:42.852Z,99469.88
2023-03-05T18:40:45.999Z,99460.22
2023-03-05T18:45:49.225Z,99460.22
2023-03-05T18:50:54.575Z,99454.00
2023-03-05T18:55:56.311Z,99448.03
2023-03-05T19:00:57.937Z,99445.66
2023-03-05T19:05:59.547Z,99445.22
2023-03-05T19:11:01.382Z,99447.09
2023-03-05T19:16:23.638Z,99432.84
2023-03-05T19:21:25.447Z,99432.09
2023-03-05T19:26:27.293Z,99428.03
2023-03-05T19:31:28.915Z,99432.19
2023-03-05T19:36:32.366Z,99431.34
2023-03-05T19:41:34.941Z,99422.44
2023-03-05T19:46:36.616Z,99407.59
2023-03-05T19:51:39.886Z,99412.91
2023-03-05T19:56:43.256Z,99409.34
2023-03-05T20:01:45.876Z,99405.84
2023-03-05T20:06:47.667Z,99398.13
2023-03-05T20:11:49.384Z,99391.22
2023-03-05T20:16:51.048Z,99389.41
2023-03-05T20:21:52.648Z,99387.75
2023-03-05T20:26:54.265Z,99392.59
2023-03-05T20:31:57.321Z,99383.91
2023-03-05T20:36:59.491Z,99385.97
2023-03-05T20:42:01.153Z,99375.06
2023-03-05T20:47:13.661Z,99370.34
2023-03-05T20:52:15.273Z,99376.38
2023-03-05T20:57:17.024Z,99360.06
2023-03-05T21:02:18.810Z,99362.06
2023-03-05T21:07:20.500Z,99359.03
2023-03-05T21:12:22.109Z,99349.38
2023-03-05T21:17:23.768Z,99350.47
2023-03-05T21:22:25.568Z,99334.03
2023-03-05T21:27:27.387Z,99326.47
2023-03-05T21:32:29.020Z,99316.44
2023-03-05T21:37:30.709Z,99317.63
2023-03-05T21:42:32.952Z,99313.44
2023-03-05T21:47:34.858Z,99305.78
2023-03-05T21:52:37.926Z,99291.75
2023-03-05T21:57:39.548Z,99286.16
2023-03-05T22:02:42.099Z,99282.22
2023-03-05T22:07:44.103Z,99273.56
2023-03-05T22:13:11.802Z,99269.72
2023-03-05T22:18:15.516Z,99263.25
2023-03-05T22:23:18.548Z,99249.66
2023-03-05T22:28:20.164Z,99242.41
2023-03-05T22:33:23.327Z,99228.63
2023-03-05T22:38:26.299Z,99232.56
2023-03-05T22:43:28.145Z,99231.72
2023-03-05T22:48:30.048Z,99231.78
2023-03-05T22:53:32.349Z,99225.16
2023-03-05T22:58:34.040Z,99220.63
2023-03-05T23:03:35.835Z,99213.41
2023-03-05T23:08:37.607Z,99214.56
2023-03-05T23:13:40.473Z,99201.81
2023-03-05T23:18:42.136Z,99190.97
2023-03-05T23:23:43.808Z,99192.59
2023-03-05T23:28:45.457Z,99188.66
2023-03-05T23:33:47.102Z,99198.06
2023-03-05T23:38:48.728Z,99184.53
2023-03-05T23:43:50.318Z,99186.06
2023-03-05T23:48:51.943Z,99186.59
2023-03-05T23:53:53.625Z,99189.16
2023-03-05T23:59:00.500Z,99184.13
